sensor_id;sensor_type;location;lat;lon;timestamp;temperature;humidity
70107;DHT22;57473;37.508;15.080;2023-02-24T00:00:11;12.20;99.90
70107;DHT22;57473;37.508;15.080;2023-02-24T00:03:01;12.20;99.90
70107;DHT22;57473;37.508;15.080;2023-02-24T00:05:34;12.30;99.90
70107;DHT22;57473;37.508;15.080;2023-02-24T00:08:02;12.30;99.90
70107;DHT22;57473;37.508;15.080;2023-02-24T00:10:29;12.30;99.90
70107;DHT22;57473;37.508;15.080;2023-02-24T00:12:57;12.30;99.90
70107;DHT22;57473;37.508;15.080;2023-02-24T00:15:25;12.30;99.90
70107;DHT22;57473;37.508;15.080;2023-02-24T00:17:52;12.40;99.90
70107;DHT22;57473;37.508;15.080;2023-02-24T00:20:20;12.30;99.90
70107;DHT22;57473;37.508;15.080;2023-02-24T00:22:47;12.40;99.90
70107;DHT22;57473;37.508;15.080;2023-02-24T00:25:15;12.30;99.90
70107;DHT22;57473;37.508;15.080;2023-02-24T00:27:42;12.40;99.90
70107;DHT22;57473;37.508;15.080;2023-02-24T00:30:10;12.40;99.90
70107;DHT22;57473;37.508;15.080;2023-02-24T00:32:37;12.40;99.90
70107;DHT22;57473;37.508;15.080;2023-02-24T00:35:06;12.40;99.90
70107;DHT22;57473;37.508;15.080;2023-02-24T00:37:34;12.50;99.90
70107;DHT22;57473;37.508;15.080;2023-02-24T00:40:02;12.50;99.90
70107;DHT22;57473;37.508;15.080;2023-02-24T00:42:37;12.50;99.90
70107;DHT22;57473;37.508;15.080;2023-02-24T00:45:06;12.50;99.90
70107;DHT22;57473;37.508;15.080;2023-02-24T00:47:37;12.50;99.90
70107;DHT22;57473;37.508;15.080;2023-02-24T00:50:08;12.50;99.90
70107;DHT22;57473;37.508;15.080;2023-02-24T00:52:36;12.50;99.90
70107;DHT22;57473;37.508;15.080;2023-02-24T00:55:05;12.50;99.90
70107;DHT22;57473;37.508;15.080;2023-02-24T00:57:40;12.50;99.90
70107;DHT22;57473;37.508;15.080;2023-02-24T01:00:08;12.40;99.90
70107;DHT22;57473;37.508;15.080;2023-02-24T01:02:43;12.40;99.90
70107;DHT22;57473;37.508;15.080;2023-02-24T01:05:14;12.40;99.90
70107;DHT22;57473;37.508;15.080;2023-02-24T01:07:41;12.40;99.90
70107;DHT22;57473;37.508;15.080;2023-02-24T01:10:10;12.40;99.90
70107;DHT22;57473;37.508;15.080;2023-02-24T01:12:38;12.40;99.90
70107;DHT22;57473;37.508;15.080;2023-02-24T01:15:18;12.40;99.90
70107;DHT22;57473;37.508;15.080;2023-02-24T01:17:45;12.40;99.90
70107;DHT22;57473;37.508;15.080;2023-02-24T01:20:13;12.40;99.90
70107;DHT22;57473;37.508;15.080;2023-02-24T01:22:50;12.30;99.90
70107;DHT22;57473;37.508;15.080;2023-02-24T01:25:21;12.40;99.90
70107;DHT22;57473;37.508;15.080;2023-02-24T01:27:48;12.30;99.90
70107;DHT22;57473;37.508;15.080;2023-02-24T01:30:16;12.30;99.90
70107;DHT22;57473;37.508;15.080;2023-02-24T01:32:44;12.30;99.90
70107;DHT22;57473;37.508;15.080;2023-02-24T01:35:13;12.40;99.90
70107;DHT22;57473;37.508;15.080;2023-02-24T01:37:41;12.40;99.90
70107;DHT22;57473;37.508;15.080;2023-02-24T01:40:11;12.40;99.90
70107;DHT22;57473;37.508;15.080;2023-02-24T01:42:47;12.40;99.90
70107;DHT22;57473;37.508;15.080;2023-02-24T01:45:18;12.40;99.90
70107;DHT22;57473;37.508;15.080;2023-02-24T01:47:47;12.40;99.90
70107;DHT22;57473;37.508;15.080;2023-02-24T01:50:18;12.30;99.90
70107;DHT22;57473;37.508;15.080;2023-02-24T01:52:50;12.30;99.90
70107;DHT22;57473;37.508;15.080;2023-02-24T01:55:20;12.20;99.90
70107;DHT22;57473;37.508;15.080;2023-02-24T01:57:51;12.10;99.90
70107;DHT22;57473;37.508;15.080;2023-02-24T02:00:20;12.00;99.90
70107;DHT22;57473;37.508;15.080;2023-02-24T02:03:30;11.90;99.90
70107;DHT22;57473;37.508;15.080;2023-02-24T02:06:02;11.80;99.90
70107;DHT22;57473;37.508;15.080;2023-02-24T02:08:30;11.70;99.90
70107;DHT22;57473;37.508;15.080;2023-02-24T02:11:03;11.60;99.90
70107;DHT22;57473;37.508;15.080;2023-02-24T02:13:33;11.60;99.90
70107;DHT22;57473;37.508;15.080;2023-02-24T02:19:13;11.40;99.90
70107;DHT22;57473;37.508;15.080;2023-02-24T02:24:34;11.30;99.90
70107;DHT22;57473;37.508;15.080;2023-02-24T02:38:36;11.00;99.90
70107;DHT22;57473;37.508;15.080;2023-02-24T02:41:17;11.00;99.90
70107;DHT22;57473;37.508;15.080;2023-02-24T02:44:10;10.90;99.90
70107;DHT22;57473;37.508;15.080;2023-02-24T02:46:43;10.90;99.90
70107;DHT22;57473;37.508;15.080;2023-02-24T02:49:35;10.80;99.90
70107;DHT22;57473;37.508;15.080;2023-02-24T02:52:09;10.80;99.90
70107;DHT22;57473;37.508;15.080;2023-02-24T02:54:55;10.80;99.90
70107;DHT22;57473;37.508;15.080;2023-02-24T02:57:30;10.70;99.90
70107;DHT22;57473;37.508;15.080;2023-02-24T03:00:03;10.70;99.90
70107;DHT22;57473;37.508;15.080;2023-02-24T03:02:47;10.60;99.90
70107;DHT22;57473;37.508;15.080;2023-02-24T03:05:19;10.60;99.90
70107;DHT22;57473;37.508;15.080;2023-02-24T03:07:52;10.50;99.90
70107;DHT22;57473;37.508;15.080;2023-02-24T03:10:28;10.50;99.90
70107;DHT22;57473;37.508;15.080;2023-02-24T03:13:00;10.50;99.90
70107;DHT22;57473;37.508;15.080;2023-02-24T03:15:31;10.50;99.90
70107;DHT22;57473;37.508;15.080;2023-02-24T03:18:13;10.40;99.90
70107;DHT22;57473;37.508;15.080;2023-02-24T03:20:46;10.50;99.90
70107;DHT22;57473;37.508;15.080;2023-02-24T03:23:18;10.50;99.90
70107;DHT22;57473;37.508;15.080;2023-02-24T03:28:31;10.50;99.90
70107;DHT22;57473;37.508;15.080;2023-02-24T03:31:15;10.50;99.90
70107;DHT22;57473;37.508;15.080;2023-02-24T03:36:27;10.30;99.90
70107;DHT22;57473;37.508;15.080;2023-02-24T03:38:55;10.30;99.90
70107;DHT22;57473;37.508;15.080;2023-02-24T03:41:41;10.30;99.90
70107;DHT22;57473;37.508;15.080;2023-02-24T03:44:10;10.30;99.90
70107;DHT22;57473;37.508;15.080;2023-02-24T03:46:38;10.20;99.90
70107;DHT22;57473;37.508;15.080;2023-02-24T03:49:10;10.20;99.90
70107;DHT22;57473;37.508;15.080;2023-02-24T04:00:40;10.10;99.90
70107;DHT22;57473;37.508;15.080;2023-02-24T04:03:33;10.00;99.90
70107;DHT22;57473;37.508;15.080;2023-02-24T04:09:38;9.90;99.90
70107;DHT22;57473;37.508;15.080;2023-02-24T04:12:26;9.90;99.90
70107;DHT22;57473;37.508;15.080;2023-02-24T04:15:14;9.90;99.90
70107;DHT22;57473;37.508;15.080;2023-02-24T04:20:20;9.90;99.90
70107;DHT22;57473;37.508;15.080;2023-02-24T04:23:00;9.90;99.90
70107;DHT22;57473;37.508;15.080;2023-02-24T04:25:30;9.90;99.90
70107;DHT22;57473;37.508;15.080;2023-02-24T04:27:59;9.90;99.90
70107;DHT22;57473;37.508;15.080;2023-02-24T04:30:33;9.90;99.90
70107;DHT22;57473;37.508;15.080;2023-02-24T04:33:03;10.00;99.90
70107;DHT22;57473;37.508;15.080;2023-02-24T04:35:30;10.00;99.90
70107;DHT22;57473;37.508;15.080;2023-02-24T04:38:00;10.00;99.90
70107;DHT22;57473;37.508;15.080;2023-02-24T04:40:28;10.00;99.90
70107;DHT22;57473;37.508;15.080;2023-02-24T04:42:55;9.90;99.90
70107;DHT22;57473;37.508;15.080;2023-02-24T04:45:27;9.90;99.90
70107;DHT22;57473;37.508;15.080;2023-02-24T04:47:57;9.90;99.90
70107;DHT22;57473;37.508;15.080;2023-02-24T04:50:36;9.80;99.90
70107;DHT22;57473;37.508;15.080;2023-02-24T04:53:09;9.80;99.90
70107;DHT22;57473;37.508;15.080;2023-02-24T04:55:40;9.80;99.90
70107;DHT22;57473;37.508;15.080;2023-02-24T04:58:18;9.80;99.90
70107;DHT22;57473;37.508;15.080;2023-02-24T05:00:50;9.70;99.90
70107;DHT22;57473;37.508;15.080;2023-02-24T05:03:24;9.70;99.90
70107;DHT22;57473;37.508;15.080;2023-02-24T05:05:56;9.60;99.90
70107;DHT22;57473;37.508;15.080;2023-02-24T05:08:28;9.60;99.90
70107;DHT22;57473;37.508;15.080;2023-02-24T05:10:56;9.60;99.90
70107;DHT22;57473;37.508;15.080;2023-02-24T05:13:27;9.60;99.90
70107;DHT22;57473;37.508;15.080;2023-02-24T05:16:05;9.50;99.90
70107;DHT22;57473;37.508;15.080;2023-02-24T05:18:34;9.50;99.90
70107;DHT22;57473;37.508;15.080;2023-02-24T05:21:08;9.50;99.90
70107;DHT22;57473;37.508;15.080;2023-02-24T05:23:55;9.50;99.90
70107;DHT22;57473;37.508;15.080;2023-02-24T05:26:25;9.50;99.90
70107;DHT22;57473;37.508;15.080;2023-02-24T05:28:54;9.50;99.90
70107;DHT22;57473;37.508;15.080;2023-02-24T05:31:25;9.50;99.90
70107;DHT22;57473;37.508;15.080;2023-02-24T05:33:59;9.50;99.90
70107;DHT22;57473;37.508;15.080;2023-02-24T05:36:32;9.50;99.90
70107;DHT22;57473;37.508;15.080;2023-02-24T05:38:59;9.40;99.90
70107;DHT22;57473;37.508;15.080;2023-02-24T05:41:35;9.40;99.90
70107;DHT22;57473;37.508;15.080;2023-02-24T05:44:08;9.40;99.90
70107;DHT22;57473;37.508;15.080;2023-02-24T05:46:41;9.40;99.90
70107;DHT22;57473;37.508;15.080;2023-02-24T05:49:19;9.40;99.90
70107;DHT22;57473;37.508;15.080;2023-02-24T05:51:50;9.40;99.90
70107;DHT22;57473;37.508;15.080;2023-02-24T05:54:28;9.30;99.90
70107;DHT22;57473;37.508;15.080;2023-02-24T05:57:00;9.30;99.90
70107;DHT22;57473;37.508;15.080;2023-02-24T05:59:28;9.30;99.90
70107;DHT22;57473;37.508;15.080;2023-02-24T06:02:02;9.30;99.90
70107;DHT22;57473;37.508;15.080;2023-02-24T06:04:37;9.40;99.90
70107;DHT22;57473;37.508;15.080;2023-02-24T06:07:19;9.40;99.90
70107;DHT22;57473;37.508;15.080;2023-02-24T06:09:50;9.50;99.90
70107;DHT22;57473;37.508;15.080;2023-02-24T06:12:31;9.50;99.90
70107;DHT22;57473;37.508;15.080;2023-02-24T06:15:00;9.50;99.90
70107;DHT22;57473;37.508;15.080;2023-02-24T06:17:33;9.60;99.90
70107;DHT22;57473;37.508;15.080;2023-02-24T06:20:01;9.60;99.90
70107;DHT22;57473;37.508;15.080;2023-02-24T06:22:39;9.70;99.90
70107;DHT22;57473;37.508;15.080;2023-02-24T06:25:09;9.80;99.90
70107;DHT22;57473;37.508;15.080;2023-02-24T06:27:40;9.80;99.90
70107;DHT22;57473;37.508;15.080;2023-02-24T06:30:09;9.90;99.90
70107;DHT22;57473;37.508;15.080;2023-02-24T06:32:37;10.00;99.90
70107;DHT22;57473;37.508;15.080;2023-02-24T06:35:04;10.10;99.90
70107;DHT22;57473;37.508;15.080;2023-02-24T06:37:32;10.20;99.90
70107;DHT22;57473;37.508;15.080;2023-02-24T06:40:01;10.30;99.90
70107;DHT22;57473;37.508;15.080;2023-02-24T06:42:35;10.40;99.90
70107;DHT22;57473;37.508;15.080;2023-02-24T06:45:02;10.40;99.90
70107;DHT22;57473;37.508;15.080;2023-02-24T06:47:32;10.60;99.90
70107;DHT22;57473;37.508;15.080;2023-02-24T06:49:59;10.70;99.90
70107;DHT22;57473;37.508;15.080;2023-02-24T06:52:26;10.70;99.90
70107;DHT22;57473;37.508;15.080;2023-02-24T06:54:56;10.80;99.90
70107;DHT22;57473;37.508;15.080;2023-02-24T06:57:23;10.90;99.90
70107;DHT22;57473;37.508;15.080;2023-02-24T06:59:50;11.00;99.90
70107;DHT22;57473;37.508;15.080;2023-02-24T07:02:18;11.00;99.90
70107;DHT22;57473;37.508;15.080;2023-02-24T07:04:45;11.20;99.90
70107;DHT22;57473;37.508;15.080;2023-02-24T07:07:13;11.20;99.30
70107;DHT22;57473;37.508;15.080;2023-02-24T07:09:41;11.30;98.60
70107;DHT22;57473;37.508;15.080;2023-02-24T07:39:31;11.90;96.60
70107;DHT22;57473;37.508;15.080;2023-02-24T07:41:58;12.20;96.00
70107;DHT22;57473;37.508;15.080;2023-02-24T07:44:26;12.30;95.20
70107;DHT22;57473;37.508;15.080;2023-02-24T07:46:55;12.40;94.70
70107;DHT22;57473;37.508;15.080;2023-02-24T07:49:25;12.40;94.30
70107;DHT22;57473;37.508;15.080;2023-02-24T07:51:56;12.50;94.50
70107;DHT22;57473;37.508;15.080;2023-02-24T07:54:25;12.50;94.70
70107;DHT22;57473;37.508;15.080;2023-02-24T07:56:56;12.60;94.20
70107;DHT22;57473;37.508;15.080;2023-02-24T07:59:31;12.60;93.80
70107;DHT22;57473;37.508;15.080;2023-02-24T08:01:59;12.70;93.70
70107;DHT22;57473;37.508;15.080;2023-02-24T08:04:31;12.60;93.90
70107;DHT22;57473;37.508;15.080;2023-02-24T08:07:05;12.70;93.40
70107;DHT22;57473;37.508;15.080;2023-02-24T08:09:41;12.80;93.60
70107;DHT22;57473;37.508;15.080;2023-02-24T08:12:14;12.80;93.90
70107;DHT22;57473;37.508;15.080;2023-02-24T08:14:45;12.70;93.50
70107;DHT22;57473;37.508;15.080;2023-02-24T08:17:22;12.80;93.90
70107;DHT22;57473;37.508;15.080;2023-02-24T08:19:51;13.00;93.00
70107;DHT22;57473;37.508;15.080;2023-02-24T08:22:41;13.10;92.00
70107;DHT22;57473;37.508;15.080;2023-02-24T08:25:21;13.30;90.90
70107;DHT22;57473;37.508;15.080;2023-02-24T08:27:51;13.40;90.50
70107;DHT22;57473;37.508;15.080;2023-02-24T08:30:37;13.40;89.70
70107;DHT22;57473;37.508;15.080;2023-02-24T08:33:07;13.50;89.70
70107;DHT22;57473;37.508;15.080;2023-02-24T08:35:37;13.60;89.40
70107;DHT22;57473;37.508;15.080;2023-02-24T08:38:08;13.50;88.60
70107;DHT22;57473;37.508;15.080;2023-02-24T08:40:38;13.50;89.00
70107;DHT22;57473;37.508;15.080;2023-02-24T08:45:51;13.80;88.20
70107;DHT22;57473;37.508;15.080;2023-02-24T08:48:28;13.70;87.70
70107;DHT22;57473;37.508;15.080;2023-02-24T08:51:07;13.80;87.90
70107;DHT22;57473;37.508;15.080;2023-02-24T08:53:36;14.00;87.10
70107;DHT22;57473;37.508;15.080;2023-02-24T08:56:12;14.10;86.10
70107;DHT22;57473;37.508;15.080;2023-02-24T08:58:42;14.10;86.10
70107;DHT22;57473;37.508;15.080;2023-02-24T09:01:19;14.40;85.00
70107;DHT22;57473;37.508;15.080;2023-02-24T09:03:54;14.30;84.90
70107;DHT22;57473;37.508;15.080;2023-02-24T09:06:37;14.40;84.90
70107;DHT22;57473;37.508;15.080;2023-02-24T09:09:06;14.50;83.80
70107;DHT22;57473;37.508;15.080;2023-02-24T09:11:58;14.70;83.40
70107;DHT22;57473;37.508;15.080;2023-02-24T09:14:31;14.90;82.60
70107;DHT22;57473;37.508;15.080;2023-02-24T09:17:06;15.20;81.60
70107;DHT22;57473;37.508;15.080;2023-02-24T09:19:48;15.30;80.20
70107;DHT22;57473;37.508;15.080;2023-02-24T09:22:25;15.30;79.80
70107;DHT22;57473;37.508;15.080;2023-02-24T09:25:12;15.30;79.80
70107;DHT22;57473;37.508;15.080;2023-02-24T09:30:39;15.50;79.10
70107;DHT22;57473;37.508;15.080;2023-02-24T09:33:27;15.70;78.20
70107;DHT22;57473;37.508;15.080;2023-02-24T09:36:05;15.80;76.90
70107;DHT22;57473;37.508;15.080;2023-02-24T09:38:59;15.80;77.20
70107;DHT22;57473;37.508;15.080;2023-02-24T09:46:58;15.80;76.30
70107;DHT22;57473;37.508;15.080;2023-02-24T09:50:02;15.90;76.10
70107;DHT22;57473;37.508;15.080;2023-02-24T09:52:31;15.90;76.40
70107;DHT22;57473;37.508;15.080;2023-02-24T09:55:34;15.90;76.00
70107;DHT22;57473;37.508;15.080;2023-02-24T10:07:19;16.30;74.90
70107;DHT22;57473;37.508;15.080;2023-02-24T10:09:49;16.10;74.50
70107;DHT22;57473;37.508;15.080;2023-02-24T10:12:29;16.20;74.50
70107;DHT22;57473;37.508;15.080;2023-02-24T10:15:11;16.10;74.70
70107;DHT22;57473;37.508;15.080;2023-02-24T10:17:51;16.10;74.70
70107;DHT22;57473;37.508;15.080;2023-02-24T10:20:36;16.30;74.80
70107;DHT22;57473;37.508;15.080;2023-02-24T10:26:22;16.50;74.10
70107;DHT22;57473;37.508;15.080;2023-02-24T10:32:55;16.60;73.00
70107;DHT22;57473;37.508;15.080;2023-02-24T10:35:28;16.60;73.30
70107;DHT22;57473;37.508;15.080;2023-02-24T10:38:01;16.90;72.20
70107;DHT22;57473;37.508;15.080;2023-02-24T10:40:51;17.10;71.40
70107;DHT22;57473;37.508;15.080;2023-02-24T10:43:26;17.30;71.00
70107;DHT22;57473;37.508;15.080;2023-02-24T10:45:58;17.40;70.00
70107;DHT22;57473;37.508;15.080;2023-02-24T10:48:33;17.40;70.70
70107;DHT22;57473;37.508;15.080;2023-02-24T10:51:14;17.50;70.70
70107;DHT22;57473;37.508;15.080;2023-02-24T10:54:06;17.60;70.90
70107;DHT22;57473;37.508;15.080;2023-02-24T10:56:50;17.60;70.00
70107;DHT22;57473;37.508;15.080;2023-02-24T10:59:47;17.70;70.00
70107;DHT22;57473;37.508;15.080;2023-02-24T11:02:37;17.70;70.00
70107;DHT22;57473;37.508;15.080;2023-02-24T11:05:38;17.80;70.10
70107;DHT22;57473;37.508;15.080;2023-02-24T11:08:23;17.90;69.70
70107;DHT22;57473;37.508;15.080;2023-02-24T11:11:20;17.80;70.60
70107;DHT22;57473;37.508;15.080;2023-02-24T11:14:17;17.40;71.90
70107;DHT22;57473;37.508;15.080;2023-02-24T11:17:21;17.50;71.50
70107;DHT22;57473;37.508;15.080;2023-02-24T11:20:03;17.70;71.60
70107;DHT22;57473;37.508;15.080;2023-02-24T11:22:39;18.00;70.80
70107;DHT22;57473;37.508;15.080;2023-02-24T11:27:46;18.40;68.50
70107;DHT22;57473;37.508;15.080;2023-02-24T11:30:24;18.00;69.90
70107;DHT22;57473;37.508;15.080;2023-02-24T11:33:02;18.40;68.30
70107;DHT22;57473;37.508;15.080;2023-02-24T11:35:36;18.20;69.40
70107;DHT22;57473;37.508;15.080;2023-02-24T11:41:26;18.60;68.40
70107;DHT22;57473;37.508;15.080;2023-02-24T11:46:49;18.70;67.60
70107;DHT22;57473;37.508;15.080;2023-02-24T11:49:30;18.40;69.80
70107;DHT22;57473;37.508;15.080;2023-02-24T11:52:03;18.80;67.60
70107;DHT22;57473;37.508;15.080;2023-02-24T11:54:42;19.30;65.40
70107;DHT22;57473;37.508;15.080;2023-02-24T11:57:19;19.00;67.40
70107;DHT22;57473;37.508;15.080;2023-02-24T11:59:56;19.10;66.50
70107;DHT22;57473;37.508;15.080;2023-02-24T12:05:27;18.60;68.60
70107;DHT22;57473;37.508;15.080;2023-02-24T12:08:02;19.10;66.60
70107;DHT22;57473;37.508;15.080;2023-02-24T12:10:34;19.50;65.20
70107;DHT22;57473;37.508;15.080;2023-02-24T12:15:44;18.80;68.20
70107;DHT22;57473;37.508;15.080;2023-02-24T12:21:16;18.60;69.60
70107;DHT22;57473;37.508;15.080;2023-02-24T12:23:46;19.00;69.50
70107;DHT22;57473;37.508;15.080;2023-02-24T12:26:42;19.30;67.90
70107;DHT22;57473;37.508;15.080;2023-02-24T12:38:09;19.60;66.40
70107;DHT22;57473;37.508;15.080;2023-02-24T12:43:21;19.30;68.70
70107;DHT22;57473;37.508;15.080;2023-02-24T12:53:58;19.50;69.20
70107;DHT22;57473;37.508;15.080;2023-02-24T12:56:58;19.70;68.50
70107;DHT22;57473;37.508;15.080;2023-02-24T12:59:35;19.50;69.60
70107;DHT22;57473;37.508;15.080;2023-02-24T13:05:05;19.20;70.20
70107;DHT22;57473;37.508;15.080;2023-02-24T13:13:30;19.40;69.60
70107;DHT22;57473;37.508;15.080;2023-02-24T13:16:00;19.80;68.80
70107;DHT22;57473;37.508;15.080;2023-02-24T13:18:33;19.70;68.30
70107;DHT22;57473;37.508;15.080;2023-02-24T13:23:31;20.10;66.60
70107;DHT22;57473;37.508;15.080;2023-02-24T13:25:59;19.80;68.50
70107;DHT22;57473;37.508;15.080;2023-02-24T13:28:34;20.10;67.20
70107;DHT22;57473;37.508;15.080;2023-02-24T13:31:12;19.60;68.90
70107;DHT22;57473;37.508;15.080;2023-02-24T13:33:42;19.50;69.60
70107;DHT22;57473;37.508;15.080;2023-02-24T13:39:19;17.80;77.70
70107;DHT22;57473;37.508;15.080;2023-02-24T13:41:39;17.90;77.40
70107;DHT22;57473;37.508;15.080;2023-02-24T13:44:23;18.00;78.10
70107;DHT22;57473;37.508;15.080;2023-02-24T13:55:15;17.20;83.00
70107;DHT22;57473;37.508;15.080;2023-02-24T13:57:58;17.10;83.50
70107;DHT22;57473;37.508;15.080;2023-02-24T14:01:14;17.10;84.10
70107;DHT22;57473;37.508;15.080;2023-02-24T14:03:24;17.10;83.90
70107;DHT22;57473;37.508;15.080;2023-02-24T14:05:53;16.80;85.70
70107;DHT22;57473;37.508;15.080;2023-02-24T14:08:25;16.60;87.00
70107;DHT22;57473;37.508;15.080;2023-02-24T14:10:56;16.60;87.60
70107;DHT22;57473;37.508;15.080;2023-02-24T14:13:26;16.70;87.40
70107;DHT22;57473;37.508;15.080;2023-02-24T14:15:57;16.70;87.40
70107;DHT22;57473;37.508;15.080;2023-02-24T14:18:27;16.80;86.90
70107;DHT22;57473;37.508;15.080;2023-02-24T14:20:56;16.50;88.60
70107;DHT22;57473;37.508;15.080;2023-02-24T14:23:25;16.40;89.10
70107;DHT22;57473;37.508;15.080;2023-02-24T14:25:56;16.40;89.40
70107;DHT22;57473;37.508;15.080;2023-02-24T14:28:31;16.40;89.90
70107;DHT22;57473;37.508;15.080;2023-02-24T14:31:12;16.20;90.90
70107;DHT22;57473;37.508;15.080;2023-02-24T14:33:42;16.30;90.80
70107;DHT22;57473;37.508;15.080;2023-02-24T14:36:22;16.20;91.10
70107;DHT22;57473;37.508;15.080;2023-02-24T14:39:47;16.10;91.90
70107;DHT22;57473;37.508;15.080;2023-02-24T14:41:50;16.10;91.90
70107;DHT22;57473;37.508;15.080;2023-02-24T14:44:22;16.40;91.50
70107;DHT22;57473;37.508;15.080;2023-02-24T14:46:53;16.40;91.20
70107;DHT22;57473;37.508;15.080;2023-02-24T14:49:28;16.40;90.50
70107;DHT22;57473;37.508;15.080;2023-02-24T14:52:01;16.20;91.90
70107;DHT22;57473;37.508;15.080;2023-02-24T14:57:14;16.00;93.00
70107;DHT22;57473;37.508;15.080;2023-02-24T14:59:46;16.00;94.10
70107;DHT22;57473;37.508;15.080;2023-02-24T15:02:18;16.00;93.70
70107;DHT22;57473;37.508;15.080;2023-02-24T15:04:47;16.00;93.90
70107;DHT22;57473;37.508;15.080;2023-02-24T15:07:21;15.90;94.80
70107;DHT22;57473;37.508;15.080;2023-02-24T15:09:51;15.90;94.70
70107;DHT22;57473;37.508;15.080;2023-02-24T15:12:35;15.90;95.00
70107;DHT22;57473;37.508;15.080;2023-02-24T15:15:19;15.80;95.70
70107;DHT22;57473;37.508;15.080;2023-02-24T15:18:02;15.70;96.10
70107;DHT22;57473;37.508;15.080;2023-02-24T15:20:31;15.80;95.80
70107;DHT22;57473;37.508;15.080;2023-02-24T15:22:59;15.80;95.20
70107;DHT22;57473;37.508;15.080;2023-02-24T15:25:30;15.70;95.40
70107;DHT22;57473;37.508;15.080;2023-02-24T15:28:22;15.70;95.50
70107;DHT22;57473;37.508;15.080;2023-02-24T15:33:41;15.70;95.80
70107;DHT22;57473;37.508;15.080;2023-02-24T15:36:22;15.70;95.90
70107;DHT22;57473;37.508;15.080;2023-02-24T15:39:00;15.70;95.60
70107;DHT22;57473;37.508;15.080;2023-02-24T15:41:40;15.60;96.50
70107;DHT22;57473;37.508;15.080;2023-02-24T15:44:30;15.60;96.50
70107;DHT22;57473;37.508;15.080;2023-02-24T15:47:11;15.60;96.40
70107;DHT22;57473;37.508;15.080;2023-02-24T15:49:38;15.50;97.20
70107;DHT22;57473;37.508;15.080;2023-02-24T15:52:08;15.40;98.40
70107;DHT22;57473;37.508;15.080;2023-02-24T15:54:38;15.40;98.50
70107;DHT22;57473;37.508;15.080;2023-02-24T15:57:05;15.30;98.50
70107;DHT22;57473;37.508;15.080;2023-02-24T15:59:33;15.40;99.00
70107;DHT22;57473;37.508;15.080;2023-02-24T16:02:00;15.30;99.10
70107;DHT22;57473;37.508;15.080;2023-02-24T16:04:28;15.30;99.30
70107;DHT22;57473;37.508;15.080;2023-02-24T16:06:56;15.30;99.80
70107;DHT22;57473;37.508;15.080;2023-02-24T16:09:38;15.30;99.80
70107;DHT22;57473;37.508;15.080;2023-02-24T16:12:11;15.30;99.90
70107;DHT22;57473;37.508;15.080;2023-02-24T16:14:40;15.20;99.90
70107;DHT22;57473;37.508;15.080;2023-02-24T16:19:50;15.00;99.90
70107;DHT22;57473;37.508;15.080;2023-02-24T16:22:18;15.00;99.90
70107;DHT22;57473;37.508;15.080;2023-02-24T16:24:45;14.90;99.90
70107;DHT22;57473;37.508;15.080;2023-02-24T16:27:15;14.80;99.90
70107;DHT22;57473;37.508;15.080;2023-02-24T16:29:43;14.70;99.90
70107;DHT22;57473;37.508;15.080;2023-02-24T16:32:12;14.70;99.90
70107;DHT22;57473;37.508;15.080;2023-02-24T16:34:40;14.60;99.90
70107;DHT22;57473;37.508;15.080;2023-02-24T16:37:16;14.50;99.90
70107;DHT22;57473;37.508;15.080;2023-02-24T16:39:45;14.40;99.90
70107;DHT22;57473;37.508;15.080;2023-02-24T16:42:12;14.40;99.90
70107;DHT22;57473;37.508;15.080;2023-02-24T16:44:40;14.30;99.90
70107;DHT22;57473;37.508;15.080;2023-02-24T16:47:13;14.30;99.90
70107;DHT22;57473;37.508;15.080;2023-02-24T16:49:41;14.20;99.90
70107;DHT22;57473;37.508;15.080;2023-02-24T16:52:11;14.20;99.90
70107;DHT22;57473;37.508;15.080;2023-02-24T16:54:38;14.10;99.90
70107;DHT22;57473;37.508;15.080;2023-02-24T16:57:06;14.10;99.90
70107;DHT22;57473;37.508;15.080;2023-02-24T16:59:33;14.10;99.90
70107;DHT22;57473;37.508;15.080;2023-02-24T17:02:01;14.10;99.90
70107;DHT22;57473;37.508;15.080;2023-02-24T17:04:29;14.10;99.90
70107;DHT22;57473;37.508;15.080;2023-02-24T17:06:58;14.10;99.90
70107;DHT22;57473;37.508;15.080;2023-02-24T17:09:25;14.10;99.90
70107;DHT22;57473;37.508;15.080;2023-02-24T17:11:56;14.00;99.90
70107;DHT22;57473;37.508;15.080;2023-02-24T17:14:23;14.00;99.90
70107;DHT22;57473;37.508;15.080;2023-02-24T17:16:50;14.00;99.90
70107;DHT22;57473;37.508;15.080;2023-02-24T17:19:18;14.00;99.90
70107;DHT22;57473;37.508;15.080;2023-02-24T17:21:46;13.90;99.90
70107;DHT22;57473;37.508;15.080;2023-02-24T17:24:16;13.90;99.90
70107;DHT22;57473;37.508;15.080;2023-02-24T17:26:44;13.90;99.90
70107;DHT22;57473;37.508;15.080;2023-02-24T17:29:12;13.90;99.90
70107;DHT22;57473;37.508;15.080;2023-02-24T17:31:40;13.90;99.90
70107;DHT22;57473;37.508;15.080;2023-02-24T17:34:08;13.80;99.90
70107;DHT22;57473;37.508;15.080;2023-02-24T17:36:36;13.80;99.90
70107;DHT22;57473;37.508;15.080;2023-02-24T17:39:03;13.80;99.90
70107;DHT22;57473;37.508;15.080;2023-02-24T17:41:30;13.90;99.90
70107;DHT22;57473;37.508;15.080;2023-02-24T17:43:58;13.90;99.90
70107;DHT22;57473;37.508;15.080;2023-02-24T17:46:25;13.90;99.90
70107;DHT22;57473;37.508;15.080;2023-02-24T17:48:53;13.80;99.90
70107;DHT22;57473;37.508;15.080;2023-02-24T17:51:20;13.80;99.90
70107;DHT22;57473;37.508;15.080;2023-02-24T17:53:48;13.70;99.90
70107;DHT22;57473;37.508;15.080;2023-02-24T17:56:15;13.70;99.90
70107;DHT22;57473;37.508;15.080;2023-02-24T17:58:43;13.70;99.90
70107;DHT22;57473;37.508;15.080;2023-02-24T18:01:10;13.70;99.90
70107;DHT22;57473;37.508;15.080;2023-02-24T18:03:37;13.60;99.90
70107;DHT22;57473;37.508;15.080;2023-02-24T18:06:06;13.60;99.90
70107;DHT22;57473;37.508;15.080;2023-02-24T18:08:36;13.60;99.90
70107;DHT22;57473;37.508;15.080;2023-02-24T18:11:04;13.60;99.90
70107;DHT22;57473;37.508;15.080;2023-02-24T18:13:33;13.60;99.90
70107;DHT22;57473;37.508;15.080;2023-02-24T18:16:00;13.60;99.90
70107;DHT22;57473;37.508;15.080;2023-02-24T18:18:28;13.60;99.90
70107;DHT22;57473;37.508;15.080;2023-02-24T18:21:00;13.60;99.90
70107;DHT22;57473;37.508;15.080;2023-02-24T18:23:28;13.60;99.90
70107;DHT22;57473;37.508;15.080;2023-02-24T18:26:02;13.60;99.90
70107;DHT22;57473;37.508;15.080;2023-02-24T18:28:30;13.60;99.90
70107;DHT22;57473;37.508;15.080;2023-02-24T18:30:57;13.60;99.90
70107;DHT22;57473;37.508;15.080;2023-02-24T18:33:26;13.50;99.90
70107;DHT22;57473;37.508;15.080;2023-02-24T18:36:00;13.50;99.90